Time;durP1;ratioP1;P1;durP2;ratioP2;P2;SDS_P1;SDS_P2;PMS_P1;PMS_P2;Temp;Humidity;BMP_temperature;BMP_pressure;BME280_temperature;BME280_humidity;BME280_pressure;Samples;Min_cycle;Max_cycle;Signal;HPM_P1;HPM_P2
2022/02/12 00:01:56;;;;;;;23.52;8.45;;;2.00;78.30;;;;;;9182818;19;20049;-61
2022/02/12 00:05:01;;;;;;;19.08;6.95;;;2.00;78.30;;;;;;9179292;19;20476;-63
2022/02/12 00:08:09;;;;;;;25.23;7.85;;;1.90;78.30;;;;;;9180301;19;20023;-62
2022/02/12 00:11:14;;;;;;;20.17;6.22;;;1.90;78.30;;;;;;9180382;19;20361;-62
2022/02/12 00:14:19;;;;;;;25.05;6.07;;;1.90;78.30;;;;;;9180798;19;20022;-62
2022/02/12 00:17:24;;;;;;;23.50;6.38;;;1.90;78.30;;;;;;9176096;19;20014;-61
2022/02/12 00:20:29;;;;;;;19.10;6.10;;;1.90;78.40;;;;;;9177903;19;20029;-62
2022/02/12 00:23:37;;;;;;;19.63;6.05;;;1.80;78.30;;;;;;9177663;19;20018;-62
2022/02/12 00:26:47;;;;;;;20.85;6.03;;;1.80;78.40;;;;;;9176727;19;20583;-61
2022/02/12 00:29:52;;;;;;;17.55;5.03;;;1.80;78.40;;;;;;9180061;19;20017;-62
2022/02/12 00:32:57;;;;;;;13.02;5.45;;;1.70;78.40;;;;;;9178730;19;20442;-60
2022/02/12 00:36:02;;;;;;;25.20;5.88;;;1.80;78.50;;;;;;9178447;19;20022;-61
2022/02/12 00:39:13;;;;;;;22.40;5.85;;;1.70;78.50;;;;;;9179126;19;20494;-63
2022/02/12 00:42:18;;;;;;;24.23;6.32;;;1.80;78.50;;;;;;9179693;19;20412;-61
2022/02/12 00:45:23;;;;;;;16.38;5.32;;;1.70;78.50;;;;;;9179710;19;20029;-63
2022/02/12 00:48:28;;;;;;;21.35;5.68;;;1.70;78.50;;;;;;9182500;19;20018;-62
2022/02/12 00:51:34;;;;;;;17.40;5.88;;;1.70;78.60;;;;;;9175935;19;20010;-63
2022/02/12 00:54:41;;;;;;;21.48;6.35;;;1.70;78.60;;;;;;9176767;19;20144;-62
2022/02/12 00:57:46;;;;;;;19.70;6.13;;;1.70;78.70;;;;;;9179863;19;20014;-63
2022/02/12 01:00:51;;;;;;;18.00;6.30;;;1.60;78.60;;;;;;9178451;19;20051;-62
2022/02/12 01:03:56;;;;;;;25.17;6.20;;;1.60;78.60;;;;;;9175222;19;20559;-63
2022/02/12 01:07:01;;;;;;;20.85;6.13;;;1.60;78.70;;;;;;9173919;19;20029;-62
2022/02/12 01:10:10;;;;;;;23.90;6.38;;;1.60;78.70;;;;;;9176852;19;20074;-62
2022/02/12 01:13:15;;;;;;;18.17;5.68;;;1.60;78.70;;;;;;9179031;19;20026;-62
2022/02/12 01:16:21;;;;;;;23.67;6.57;;;1.60;78.80;;;;;;9177776;19;20022;-64
2022/02/12 01:19:27;;;;;;;28.75;7.18;;;1.60;78.80;;;;;;9171455;19;20018;-62
2022/02/12 01:22:32;;;;;;;18.38;6.53;;;1.50;78.70;;;;;;9176418;19;20448;-62
2022/02/12 01:25:39;;;;;;;16.30;6.07;;;1.50;78.70;;;;;;9174706;19;20035;-63
2022/02/12 01:28:45;;;;;;;12.27;5.93;;;1.50;78.80;;;;;;9177412;19;20018;-64
2022/02/12 01:31:50;;;;;;;19.50;6.35;;;1.50;79.40;;;;;;9178633;19;20483;-62
2022/02/12 01:34:57;;;;;;;16.58;6.97;;;1.50;78.80;;;;;;9174254;19;20033;-62
2022/02/12 01:38:02;;;;;;;21.45;7.18;;;1.50;78.80;;;;;;9175381;19;20018;-61
2022/02/12 01:41:10;;;;;;;21.60;6.32;;;1.40;78.80;;;;;;9175743;19;20010;-63
2022/02/12 01:44:15;;;;;;;24.95;6.82;;;1.40;78.80;;;;;;9176158;19;20041;-62
2022/02/12 01:47:20;;;;;;;19.75;6.38;;;1.40;78.80;;;;;;9176646;19;20352;-61
2022/02/12 01:50:25;;;;;;;30.40;6.45;;;1.40;78.80;;;;;;9173734;19;20345;-66
2022/02/12 01:53:30;;;;;;;20.08;6.32;;;1.40;78.90;;;;;;9175843;19;20376;-63
2022/02/12 01:56:38;;;;;;;17.65;6.45;;;1.40;79.00;;;;;;9175735;19;20042;-63
2022/02/12 01:59:43;;;;;;;15.68;6.72;;;1.40;78.90;;;;;;9178244;19;20019;-62
2022/02/12 02:02:50;;;;;;;24.20;7.45;;;1.30;78.90;;;;;;9174675;19;20010;-63
2022/02/12 02:05:59;;;;;;;16.67;6.18;;;1.30;78.90;;;;;;9172914;19;20022;-60
2022/02/12 02:09:08;;;;;;;23.38;6.45;;;1.30;79.00;;;;;;9176478;19;20094;-60
2022/02/12 02:12:15;;;;;;;22.38;6.68;;;1.30;79.00;;;;;;9176985;19;20054;-62
2022/02/12 02:15:20;;;;;;;16.95;7.00;;;1.30;79.00;;;;;;9180395;19;20021;-63
2022/02/12 02:18:25;;;;;;;18.60;6.18;;;1.30;79.00;;;;;;9181193;19;20011;-62
2022/02/12 02:21:32;;;;;;;27.15;6.47;;;1.20;79.10;;;;;;9183664;19;20025;-62
2022/02/12 02:24:39;;;;;;;26.98;5.88;;;1.20;79.10;;;;;;9185927;19;20795;-61
2022/02/12 02:27:44;;;;;;;23.42;6.63;;;1.20;79.00;;;;;;9181190;19;20022;-61
2022/02/12 02:30:49;;;;;;;23.55;6.40;;;1.10;79.10;;;;;;9186075;19;20014;-63
2022/02/12 02:33:54;;;;;;;20.58;7.40;;;1.10;79.10;;;;;;9182590;19;20014;-64
2022/02/12 02:36:59;;;;;;;26.60;7.05;;;1.10;79.10;;;;;;9181403;19;20019;-62
2022/02/12 02:40:12;;;;;;;17.00;5.30;;;1.10;79.10;;;;;;9183960;19;20028;-62
2022/02/12 02:43:17;;;;;;;19.20;6.43;;;1.10;79.20;;;;;;9186393;19;20018;-61
2022/02/12 02:46:22;;;;;;;19.23;6.32;;;1.10;79.20;;;;;;9179880;19;20022;-61
2022/02/12 02:49:27;;;;;;;14.85;5.40;;;1.00;79.10;;;;;;9182734;19;20030;-63
2022/02/12 02:56:02;;;;;;;19.60;5.93;;;1.00;79.20;;;;;;9182076;19;20368;-63
2022/02/12 02:59:08;;;;;;;22.27;6.30;;;1.00;79.20;;;;;;9184541;19;20114;-62
2022/02/12 03:02:13;;;;;;;17.90;4.95;;;1.00;79.20;;;;;;9178961;19;20535;-63
2022/02/12 03:05:18;;;;;;;17.33;4.80;;;1.00;79.20;;;;;;9182100;19;20034;-64
2022/02/12 03:08:23;;;;;;;19.38;7.18;;;1.00;79.30;;;;;;9182062;19;20048;-63
2022/02/12 03:11:30;;;;;;;24.02;5.22;;;1.00;79.30;;;;;;9184842;19;20018;-63
2022/02/12 03:14:37;;;;;;;17.35;5.45;;;1.00;79.30;;;;;;9180960;19;20014;-62
2022/02/12 03:17:42;;;;;;;17.85;5.03;;;0.90;79.30;;;;;;9175359;19;20118;-61
2022/02/12 03:20:47;;;;;;;19.50;5.10;;;0.90;79.40;;;;;;9180058;19;20029;-61
2022/02/12 03:23:52;;;;;;;19.23;5.40;;;0.90;79.40;;;;;;9183661;19;20019;-64
2022/02/12 03:27:00;;;;;;;15.50;5.38;;;0.90;79.40;;;;;;9180616;19;20022;-61
2022/02/12 03:30:06;;;;;;;16.33;5.38;;;0.90;79.50;;;;;;9179604;19;20018;-63
2022/02/12 03:33:11;;;;;;;16.77;5.20;;;0.90;80.10;;;;;;9180702;19;20369;-63
2022/02/12 03:36:17;;;;;;;12.10;5.13;;;0.90;79.50;;;;;;9181981;19;20500;-63
2022/02/12 03:39:21;;;;;;;24.25;5.10;;;0.90;79.50;;;;;;9181749;19;20468;-61
2022/02/12 03:42:29;;;;;;;15.52;5.13;;;0.90;79.50;;;;;;9182622;19;20019;-62
2022/02/12 03:45:35;;;;;;;17.13;5.15;;;0.80;79.50;;;;;;9177853;19;20018;-62
2022/02/12 03:48:40;;;;;;;17.88;6.63;;;0.90;79.60;;;;;;9180447;19;20015;-61
2022/02/12 03:51:45;;;;;;;14.35;4.55;;;0.80;79.50;;;;;;9179914;19;20480;-61
2022/02/12 03:54:50;;;;;;;17.88;5.25;;;0.90;79.60;;;;;;9180393;19;20021;-60
2022/02/12 03:57:58;;;;;;;15.75;4.75;;;0.90;79.60;;;;;;9181022;19;20022;-63
2022/02/12 04:01:04;;;;;;;15.30;4.60;;;0.80;79.50;;;;;;9180460;19;20019;-60
2022/02/12 04:04:09;;;;;;;16.80;5.35;;;0.80;79.50;;;;;;9179019;19;20011;-60
2022/02/12 04:07:14;;;;;;;16.42;5.25;;;0.80;79.60;;;;;;9179421;19;20022;-62
2022/02/12 04:10:20;;;;;;;20.88;5.18;;;0.80;79.50;;;;;;9179962;19;20023;-61
2022/02/12 04:13:30;;;;;;;15.85;5.05;;;0.80;79.50;;;;;;9182553;19;20562;-62
2022/02/12 04:16:35;;;;;;;21.55;5.82;;;0.80;79.50;;;;;;9177315;19;20014;-63
2022/02/12 04:19:40;;;;;;;21.63;6.15;;;0.80;79.60;;;;;;9174803;19;20014;-62
2022/02/12 04:22:46;;;;;;;22.38;5.97;;;0.80;79.80;;;;;;9179015;19;20029;-62
2022/02/12 04:25:51;;;;;;;19.80;5.95;;;0.80;79.60;;;;;;9179458;19;20021;-64
2022/02/12 04:28:59;;;;;;;14.35;5.05;;;0.80;79.70;;;;;;9180341;19;20030;-62
2022/02/12 04:32:04;;;;;;;17.85;6.82;;;0.80;79.70;;;;;;9179546;19;20456;-62
2022/02/12 04:35:12;;;;;;;15.93;5.65;;;0.80;79.70;;;;;;9179335;19;20026;-61
2022/02/12 04:38:17;;;;;;;12.23;5.50;;;0.80;79.70;;;;;;9178145;19;20025;-62
2022/02/12 04:41:23;;;;;;;24.20;5.93;;;0.80;79.80;;;;;;9179873;19;20487;-63
2022/02/12 04:44:40;;;;;;;22.15;6.38;;;0.80;79.80;;;;;;9177170;19;20048;-62
2022/02/12 04:47:46;;;;;;;21.80;5.85;;;0.80;79.80;;;;;;9177034;19;20011;-62
2022/02/12 04:50:51;;;;;;;21.70;5.80;;;0.80;79.80;;;;;;9175888;19;20026;-61
2022/02/12 04:53:57;;;;;;;26.92;7.00;;;0.80;79.80;;;;;;9178291;19;20029;-62
2022/02/12 04:57:03;;;;;;;15.68;6.15;;;0.80;79.80;;;;;;9178367;19;20025;-61
2022/02/12 05:00:13;;;;;;;16.45;6.85;;;0.80;79.80;;;;;;9181149;19;20011;-61
2022/02/12 05:03:18;;;;;;;27.77;6.72;;;0.80;79.80;;;;;;9177264;19;20357;-61
2022/02/12 05:06:23;;;;;;;14.90;5.45;;;0.80;79.80;;;;;;9177325;19;20071;-62
2022/02/12 05:09:31;;;;;;;18.00;6.68;;;0.80;79.90;;;;;;9176570;19;20014;-61
2022/02/12 05:12:36;;;;;;;18.38;6.30;;;0.80;79.90;;;;;;9178320;19;20026;-62
2022/02/12 05:15:43;;;;;;;18.15;6.15;;;0.80;79.90;;;;;;9178352;19;20025;-61
2022/02/12 05:18:49;;;;;;;20.10;6.97;;;0.80;79.90;;;;;;9172301;19;20029;-60
2022/02/12 05:21:54;;;;;;;17.58;5.82;;;0.80;79.90;;;;;;9177683;19;20023;-61
2022/02/12 05:24:59;;;;;;;18.00;6.53;;;0.80;79.90;;;;;;9176723;19;20037;-62
2022/02/12 05:28:04;;;;;;;21.17;5.75;;;0.80;79.90;;;;;;9177479;19;20017;-60
2022/02/12 05:31:12;;;;;;;20.98;6.65;;;0.80;79.90;;;;;;9179029;19;20021;-63
2022/02/12 05:34:17;;;;;;;18.88;5.95;;;0.80;80.00;;;;;;9176648;19;20106;-61
2022/02/12 05:37:22;;;;;;;10.70;5.63;;;0.80;79.90;;;;;;9175235;19;20015;-61
2022/02/12 05:40:27;;;;;;;18.75;6.45;;;0.80;80.00;;;;;;9178263;19;20046;-62
2022/02/12 05:43:33;;;;;;;17.75;5.70;;;0.80;80.00;;;;;;9178515;19;20120;-62
2022/02/12 05:46:41;;;;;;;15.27;5.45;;;0.80;80.10;;;;;;9176436;19;20513;-60
2022/02/12 05:49:46;;;;;;;20.77;5.35;;;0.80;80.00;;;;;;9173095;19;20333;-61
2022/02/12 05:52:51;;;;;;;15.35;5.40;;;0.80;80.00;;;;;;9175051;19;20015;-61
2022/02/12 05:55:56;;;;;;;28.98;5.00;;;0.80;80.10;;;;;;9175581;19;20464;-62
2022/02/12 05:59:02;;;;;;;29.08;6.75;;;0.90;80.20;;;;;;9176758;19;20023;-62
2022/02/12 06:02:10;;;;;;;26.45;8.50;;;0.90;80.10;;;;;;9175900;19;20023;-62
2022/02/12 06:05:15;;;;;;;15.00;5.07;;;0.90;80.10;;;;;;9173303;19;20014;-63
2022/02/12 06:08:20;;;;;;;18.95;4.75;;;0.90;80.10;;;;;;9175886;19;20516;-61
2022/02/12 06:11:25;;;;;;;15.43;4.40;;;0.90;80.10;;;;;;9178707;19;20007;-62
2022/02/12 06:14:30;;;;;;;14.32;4.63;;;0.90;80.10;;;;;;9175635;19;20022;-61
2022/02/12 06:17:38;;;;;;;18.67;4.75;;;0.90;80.10;;;;;;9170897;19;20014;-63
2022/02/12 06:20:43;;;;;;;16.58;5.03;;;0.90;80.10;;;;;;9172695;19;20078;-63
2022/02/12 06:23:48;;;;;;;11.00;5.03;;;0.90;80.20;;;;;;9174504;19;20026;-60
2022/02/12 06:26:57;;;;;;;21.92;6.00;;;0.90;80.10;;;;;;9173237;19;20022;-61
2022/02/12 06:30:02;;;;;;;16.98;5.13;;;0.90;80.20;;;;;;9171809;19;20029;-63
2022/02/12 06:33:09;;;;;;;24.25;5.90;;;0.90;80.10;;;;;;9170688;19;20015;-61
2022/02/12 06:36:15;;;;;;;15.00;5.32;;;0.90;80.10;;;;;;9167992;19;20453;-61
2022/02/12 06:39:20;;;;;;;21.00;5.72;;;0.90;80.10;;;;;;9168807;19;20469;-60
2022/02/12 06:42:25;;;;;;;16.75;4.60;;;0.90;80.10;;;;;;9176156;19;20007;-60
2022/02/12 06:45:30;;;;;;;14.90;4.50;;;0.90;80.10;;;;;;9175415;19;20440;-62
2022/02/12 06:48:38;;;;;;;16.77;5.05;;;0.90;80.10;;;;;;9172716;19;20847;-62
2022/02/12 06:51:43;;;;;;;20.05;5.35;;;1.00;80.20;;;;;;9173828;19;20026;-64
2022/02/12 06:54:48;;;;;;;21.42;7.28;;;0.90;80.10;;;;;;9174569;19;20040;-62
2022/02/12 06:57:54;;;;;;;17.98;5.10;;;0.90;80.10;;;;;;9174551;19;20029;-61
2022/02/12 07:00:59;;;;;;;11.52;4.93;;;0.90;80.10;;;;;;9177799;19;20745;-62
2022/02/12 07:04:07;;;;;;;30.85;5.90;;;0.90;80.10;;;;;;9180130;19;20014;-62
2022/02/12 07:07:12;;;;;;;18.40;5.07;;;0.90;80.20;;;;;;9179675;19;20034;-64
2022/02/12 07:10:21;;;;;;;19.92;4.95;;;0.90;80.20;;;;;;9180428;19;20052;-63
2022/02/12 07:13:26;;;;;;;19.80;6.63;;;0.90;80.20;;;;;;9185311;19;20486;-61
2022/02/12 07:16:31;;;;;;;20.75;6.38;;;0.90;80.20;;;;;;9182737;19;20014;-60
2022/02/12 07:19:38;;;;;;;11.13;4.60;;;0.90;80.20;;;;;;9175534;19;20325;-63
2022/02/12 07:22:44;;;;;;;27.70;6.07;;;0.90;80.20;;;;;;9181693;19;20341;-63
2022/02/12 07:25:49;;;;;;;22.23;6.63;;;0.90;80.20;;;;;;9180778;19;20026;-62
2022/02/12 07:28:54;;;;;;;26.58;6.63;;;0.90;80.80;;;;;;9181186;19;20010;-62
2022/02/12 07:31:59;;;;;;;33.75;7.45;;;0.90;80.20;;;;;;9184600;19;20042;-63
2022/02/12 07:35:08;;;;;;;24.00;5.90;;;0.90;80.20;;;;;;9181750;19;20024;-61
2022/02/12 07:38:13;;;;;;;16.95;5.78;;;0.90;80.20;;;;;;9181345;19;20420;-62
2022/02/12 07:41:18;;;;;;;22.67;6.32;;;0.90;80.30;;;;;;9180335;19;20015;-61
2022/02/12 07:44:24;;;;;;;21.50;6.35;;;1.00;80.30;;;;;;9182628;19;20094;-64
2022/02/12 07:47:29;;;;;;;21.33;5.38;;;1.00;80.30;;;;;;9182495;19;20484;-63
2022/02/12 07:50:36;;;;;;;25.17;6.63;;;1.00;80.30;;;;;;9179308;19;20037;-61
2022/02/12 07:53:41;;;;;;;20.70;5.85;;;1.00;80.30;;;;;;9181042;19;20483;-63
2022/02/12 07:56:46;;;;;;;19.40;5.97;;;1.00;80.30;;;;;;9180886;19;20034;-61
2022/02/12 07:59:52;;;;;;;24.25;6.53;;;1.00;80.40;;;;;;9183190;19;20033;-61
2022/02/12 08:02:57;;;;;;;19.23;5.53;;;1.10;80.40;;;;;;9181347;19;20007;-60
2022/02/12 08:07:27;;;;;;;22.10;5.75;;;1.10;80.30;;;;;;9179211;19;20022;-62
2022/02/12 08:09:31;;;;;;;28.42;6.57;;;1.10;80.30;;;;;;9180831;19;20018;-62
2022/02/12 08:12:36;;;;;;;28.05;6.57;;;1.10;80.30;;;;;;9178335;19;20025;-61
2022/02/12 08:15:41;;;;;;;28.10;5.97;;;1.10;80.30;;;;;;9183603;19;20014;-61
2022/02/12 08:18:46;;;;;;;16.50;5.00;;;1.20;80.40;;;;;;9177479;19;20043;-61
2022/02/12 08:21:53;;;;;;;18.08;5.45;;;1.10;80.30;;;;;;9179349;19;20374;-62
2022/02/12 08:24:58;;;;;;;28.67;5.60;;;1.20;80.30;;;;;;9178783;19;20010;-60
2022/02/12 08:28:03;;;;;;;23.30;5.78;;;1.20;80.30;;;;;;9177824;19;20029;-62
2022/02/12 08:31:09;;;;;;;20.25;5.50;;;1.20;80.30;;;;;;9180237;19;20054;-60
2022/02/12 08:34:15;;;;;;;19.30;5.82;;;1.30;80.40;;;;;;9179569;19;20014;-64
2022/02/12 08:37:23;;;;;;;23.80;7.28;;;1.30;80.40;;;;;;9177108;19;20041;-62
2022/02/12 08:40:29;;;;;;;16.50;6.07;;;1.30;80.40;;;;;;9179377;19;20337;-63
2022/02/12 08:43:34;;;;;;;27.35;7.68;;;1.30;80.40;;;;;;9181913;19;20851;-63
2022/02/12 08:46:39;;;;;;;23.25;6.40;;;1.40;80.40;;;;;;9179959;19;20023;-62
2022/02/12 08:49:44;;;;;;;19.17;6.65;;;1.40;80.40;;;;;;9178857;19;20086;-61
2022/02/12 08:52:52;;;;;;;36.05;8.48;;;1.40;80.40;;;;;;9176559;19;20595;-64
2022/02/12 08:55:57;;;;;;;25.63;7.70;;;1.50;80.50;;;;;;9170867;19;20590;-64
2022/02/12 08:59:02;;;;;;;29.05;7.95;;;1.50;80.60;;;;;;9178439;19;20057;-62
2022/02/12 09:02:07;;;;;;;29.67;8.93;;;1.60;80.70;;;;;;9180291;19;20590;-64
2022/02/12 09:05:12;;;;;;;25.70;7.50;;;1.80;80.90;;;;;;9176722;19;20010;-63
2022/02/12 09:08:20;;;;;;;21.67;5.85;;;1.90;81.00;;;;;;9176849;19;20022;-61
2022/02/12 09:11:25;;;;;;;16.33;6.72;;;2.00;81.10;;;;;;9177055;19;20025;-61
2022/02/12 09:14:30;;;;;;;14.18;5.05;;;2.20;81.10;;;;;;9177410;19;20025;-64
2022/02/12 09:17:35;;;;;;;21.65;5.55;;;2.30;81.10;;;;;;9173815;19;20022;-61
2022/02/12 09:20:41;;;;;;;23.25;6.10;;;2.50;81.10;;;;;;9176191;19;20025;-62
2022/02/12 09:23:48;;;;;;;18.52;5.07;;;2.70;81.00;;;;;;9176105;19;20034;-62
2022/02/12 09:26:54;;;;;;;20.80;5.93;;;2.80;80.90;;;;;;9175668;19;20022;-61
2022/02/12 09:29:59;;;;;;;18.33;5.55;;;3.00;80.90;;;;;;9177322;19;20014;-63
2022/02/12 09:33:04;;;;;;;19.02;4.50;;;3.20;81.00;;;;;;9180197;19;20018;-64
2022/02/12 09:36:26;;;;;;;24.92;4.85;;;3.30;81.00;;;;;;9174974;19;20051;-64
2022/02/12 09:39:34;;;;;;;14.05;4.90;;;3.50;81.00;;;;;;9175289;19;20018;-65
2022/02/12 09:42:39;;;;;;;21.45;5.55;;;3.70;81.00;;;;;;9176500;19;20558;-63
2022/02/12 09:45:56;;;;;;;20.08;4.70;;;3.90;80.90;;;;;;9175998;19;20780;-63
2022/02/12 09:49:02;;;;;;;26.13;5.22;;;4.00;80.80;;;;;;9177839;19;20082;-63
2022/02/12 09:52:08;;;;;;;22.42;4.00;;;4.20;80.70;;;;;;9179517;19;20500;-64
2022/02/12 09:55:16;;;;;;;15.20;3.85;;;4.40;80.70;;;;;;9176563;19;20022;-63
2022/02/12 09:58:21;;;;;;;20.50;4.07;;;4.60;80.60;;;;;;9176664;19;20082;-64
2022/02/12 10:01:26;;;;;;;18.20;4.40;;;4.80;80.50;;;;;;9175622;19;20484;-64
2022/02/12 10:04:31;;;;;;;14.63;3.92;;;5.00;80.50;;;;;;9177170;19;20026;-63
2022/02/12 10:07:37;;;;;;;16.52;4.20;;;5.10;80.40;;;;;;9174153;19;20033;-64
2022/02/12 10:10:46;;;;;;;16.58;3.67;;;5.30;80.30;;;;;;9173848;19;20049;-64
2022/02/12 10:13:51;;;;;;;22.00;5.00;;;5.50;80.20;;;;;;9176942;19;20018;-63
2022/02/12 10:17:00;;;;;;;9.35;2.85;;;5.70;80.20;;;;;;9172258;19;20020;-65
2022/02/12 10:20:06;;;;;;;10.95;3.45;;;5.90;80.00;;;;;;9177271;19;20011;-64
2022/02/12 10:23:15;;;;;;;11.27;3.60;;;6.10;79.70;;;;;;9175741;19;20018;-63
2022/02/12 10:26:23;;;;;;;13.15;3.17;;;6.20;79.50;;;;;;9170571;19;20029;-65
2022/02/12 10:29:28;;;;;;;12.73;2.97;;;6.40;79.50;;;;;;9169916;19;20037;-64
2022/02/12 10:32:33;;;;;;;10.15;2.50;;;6.50;79.40;;;;;;9173513;19;20468;-63
2022/02/12 10:35:40;;;;;;;12.70;3.58;;;6.60;79.20;;;;;;9176242;19;20610;-64
2022/02/12 10:38:49;;;;;;;13.45;2.83;;;6.80;79.10;;;;;;9179612;19;20022;-63
2022/02/12 10:42:10;;;;;;;11.75;3.10;;;6.90;78.90;;;;;;9180138;19;20010;-63
2022/02/12 10:45:19;;;;;;;11.80;3.55;;;7.10;78.50;;;;;;9179440;19;20559;-63
2022/02/12 10:48:26;;;;;;;17.73;3.50;;;7.20;78.50;;;;;;9181491;19;20677;-63
2022/02/12 10:51:31;;;;;;;11.55;2.85;;;7.30;78.40;;;;;;9177828;19;20018;-64
2022/02/12 10:54:46;;;;;;;16.20;3.05;;;7.40;78.30;;;;;;9182678;19;20014;-64
2022/02/12 10:57:57;;;;;;;9.90;3.63;;;7.50;78.10;;;;;;9178398;19;20022;-64
2022/02/12 11:01:04;;;;;;;14.48;3.28;;;7.60;78.10;;;;;;9179896;19;20022;-64
2022/02/12 11:04:10;;;;;;;15.25;3.63;;;7.70;77.90;;;;;;9181356;19;20014;-63
2022/02/12 11:07:18;;;;;;;14.35;3.17;;;7.80;77.80;;;;;;9183948;19;20075;-63
2022/02/12 11:10:24;;;;;;;14.07;2.95;;;7.90;77.60;;;;;;9180576;19;20014;-65
2022/02/12 11:13:32;;;;;;;16.65;3.95;;;8.00;77.50;;;;;;9181580;19;20037;-63
2022/02/12 11:16:38;;;;;;;14.98;3.70;;;8.10;77.30;;;;;;9180830;19;20364;-63
2022/02/12 11:19:44;;;;;;;15.93;4.00;;;8.10;77.10;;;;;;9179303;19;20369;-63
2022/02/12 11:22:55;;;;;;;15.27;4.22;;;8.20;77.00;;;;;;9183657;19;20014;-62
2022/02/12 11:26:22;;;;;;;13.20;3.13;;;8.20;76.80;;;;;;9182667;19;20015;-64
2022/02/12 11:29:34;;;;;;;16.63;3.47;;;8.30;76.50;;;;;;9181034;19;20021;-64
2022/02/12 11:32:45;;;;;;;16.20;3.05;;;8.30;76.50;;;;;;9180546;19;20014;-63
2022/02/12 11:36:20;;;;;;;11.43;3.45;;;8.30;76.60;;;;;;9179674;19;20022;-63
2022/02/12 11:39:30;;;;;;;16.05;3.83;;;8.30;76.40;;;;;;9181982;19;20467;-63
2022/02/12 11:42:43;;;;;;;17.00;4.13;;;8.40;76.50;;;;;;9183751;19;20038;-62
2022/02/12 11:45:51;;;;;;;15.13;3.83;;;8.50;76.40;;;;;;9183950;19;20675;-63
2022/02/12 11:49:28;;;;;;;18.08;4.95;;;8.50;76.30;;;;;;9179347;19;20557;-62
2022/02/12 11:52:55;;;;;;;16.33;3.47;;;8.60;76.60;;;;;;9178102;19;20014;-64
2022/02/12 11:56:00;;;;;;;12.57;3.95;;;8.60;75.90;;;;;;9180271;19;20021;-65
2022/02/12 11:59:05;;;;;;;10.27;3.13;;;8.60;76.00;;;;;;9179373;19;20015;-63
2022/02/12 12:02:42;;;;;;;19.15;4.20;;;8.60;75.80;;;;;;9182456;19;20391;-64
2022/02/12 12:05:47;;;;;;;14.32;3.65;;;8.60;75.30;;;;;;9179533;19;20022;-64
2022/02/12 12:09:06;;;;;;;22.63;4.97;;;8.60;75.70;;;;;;9180411;19;20406;-62
2022/02/12 12:12:22;;;;;;;18.00;6.03;;;8.50;75.30;;;;;;9179652;19;20014;-63
2022/02/12 12:15:27;;;;;;;21.48;8.10;;;8.50;75.30;;;;;;9179609;19;20472;-63
2022/02/12 12:18:45;;;;;;;15.07;3.58;;;8.40;75.60;;;;;;9176773;19;20025;-63
2022/02/12 12:21:50;;;;;;;15.75;3.33;;;8.40;75.30;;;;;;9179809;19;20019;-63
2022/02/12 12:25:00;;;;;;;20.50;3.85;;;8.40;75.60;;;;;;9180236;19;20046;-68
2022/02/12 12:28:06;;;;;;;18.38;3.70;;;8.30;75.30;;;;;;9181478;19;20018;-64
2022/02/12 12:31:10;;;;;;;15.95;3.90;;;8.30;75.50;;;;;;9176944;19;20007;-64
2022/02/12 12:34:21;;;;;;;14.55;3.30;;;8.30;75.50;;;;;;9180420;19;20396;-64
2022/02/12 12:37:28;;;;;;;17.65;4.05;;;8.30;75.40;;;;;;9178433;19;20021;-62
2022/02/12 12:40:36;;;;;;;21.25;4.35;;;8.30;75.30;;;;;;9179848;19;20026;-64
2022/02/12 12:43:41;;;;;;;10.95;2.72;;;8.20;75.20;;;;;;9178464;19;20022;-63
2022/02/12 12:46:49;;;;;;;12.98;3.60;;;8.20;75.80;;;;;;9176293;19;20015;-63
2022/02/12 12:49:59;;;;;;;14.73;3.60;;;8.20;75.10;;;;;;9179125;19;20021;-62
2022/02/12 12:53:06;;;;;;;17.77;4.47;;;8.20;75.00;;;;;;9179757;19;20015;-63
2022/02/12 12:56:12;;;;;;;14.85;2.92;;;8.20;75.00;;;;;;9177385;19;20025;-62
2022/02/12 12:59:18;;;;;;;12.75;2.35;;;8.20;75.00;;;;;;9175978;19;20406;-63
2022/02/12 13:02:23;;;;;;;11.80;2.00;;;8.20;74.80;;;;;;9178648;19;20480;-63
2022/02/12 13:05:32;;;;;;;13.88;2.30;;;8.20;75.20;;;;;;9177080;19;20055;-62
2022/02/12 13:08:38;;;;;;;8.93;2.58;;;8.10;74.20;;;;;;9179300;19;20030;-63
2022/02/12 13:11:43;;;;;;;10.02;2.58;;;8.10;74.30;;;;;;9178770;19;20010;-62
2022/02/12 13:14:48;;;;;;;10.38;2.42;;;8.00;74.20;;;;;;9174796;19;20022;-64
2022/02/12 13:17:55;;;;;;;11.02;3.50;;;7.90;74.10;;;;;;9171700;19;20018;-63
2022/02/12 13:21:14;;;;;;;13.30;3.45;;;7.90;74.00;;;;;;9176243;19;20352;-63
2022/02/12 13:24:20;;;;;;;9.82;2.85;;;7.90;73.70;;;;;;9177682;19;20480;-63
2022/02/12 13:27:26;;;;;;;13.27;2.95;;;7.80;74.00;;;;;;9177251;19;20022;-63
2022/02/12 13:30:34;;;;;;;14.80;4.60;;;7.80;74.00;;;;;;9178951;19;20015;-62
2022/02/12 13:33:39;;;;;;;14.18;3.00;;;7.80;74.00;;;;;;9175533;19;20338;-63
2022/02/12 13:36:48;;;;;;;14.80;3.25;;;7.70;74.00;;;;;;9176134;19;20015;-64
2022/02/12 13:39:56;;;;;;;15.27;3.70;;;7.70;73.90;;;;;;9178041;19;20023;-63
2022/02/12 13:43:03;;;;;;;15.00;3.95;;;7.60;73.80;;;;;;9178476;19;20388;-64
2022/02/12 13:46:08;;;;;;;14.52;3.15;;;7.60;73.80;;;;;;9178790;19;20018;-62
2022/02/12 13:49:17;;;;;;;13.95;2.97;;;7.60;73.90;;;;;;9176495;19;20045;-63
2022/02/12 13:52:25;;;;;;;16.08;3.35;;;7.60;73.70;;;;;;9176867;19;20033;-65
2022/02/12 13:55:32;;;;;;;10.00;3.33;;;7.50;73.70;;;;;;9177086;19;20014;-62
2022/02/12 13:58:37;;;;;;;15.07;3.35;;;7.50;73.70;;;;;;9176424;19;20022;-62
2022/02/12 14:01:42;;;;;;;11.40;3.20;;;7.50;73.80;;;;;;9176685;19;20468;-63
2022/02/12 14:04:47;;;;;;;14.77;2.97;;;7.50;73.80;;;;;;9176138;19;20026;-62
2022/02/12 14:07:56;;;;;;;11.95;3.15;;;7.50;73.70;;;;;;9175327;19;20048;-64
2022/02/12 14:11:02;;;;;;;11.40;2.70;;;7.50;73.60;;;;;;9175710;19;20018;-63
2022/02/12 14:14:08;;;;;;;14.45;3.80;;;7.50;73.70;;;;;;9178764;19;20017;-62
2022/02/12 14:17:13;;;;;;;15.52;3.28;;;7.50;74.20;;;;;;9170580;19;20022;-63
2022/02/12 14:20:18;;;;;;;12.45;4.05;;;7.50;73.50;;;;;;9174194;19;20352;-63
2022/02/12 14:23:25;;;;;;;21.17;4.13;;;7.50;73.40;;;;;;9174385;19;20023;-63
2022/02/12 14:26:30;;;;;;;15.60;3.85;;;7.50;73.40;;;;;;9176844;19;20014;-63
2022/02/12 14:29:35;;;;;;;14.88;3.15;;;7.50;73.40;;;;;;9175781;19;20370;-62
2022/02/12 14:32:40;;;;;;;14.82;2.90;;;7.50;73.30;;;;;;9173049;19;20460;-62
2022/02/12 14:35:49;;;;;;;12.82;3.28;;;7.40;73.20;;;;;;9175471;19;20014;-62
2022/02/12 14:38:58;;;;;;;15.82;3.63;;;7.40;73.20;;;;;;9175862;19;20378;-62
2022/02/12 14:42:02;;;;;;;16.45;3.90;;;7.40;73.10;;;;;;9174905;19;20026;-62
2022/02/12 14:45:08;;;;;;;10.63;3.63;;;7.40;73.20;;;;;;9176400;19;20468;-62
2022/02/12 14:48:13;;;;;;;16.15;4.15;;;7.40;73.10;;;;;;9171145;19;20015;-62
2022/02/12 14:51:21;;;;;;;10.88;3.22;;;7.40;73.10;;;;;;9174453;19;20007;-63
2022/02/12 14:54:33;;;;;;;13.80;2.95;;;7.40;73.00;;;;;;9174907;19;20492;-63
2022/02/12 14:57:38;;;;;;;12.68;2.80;;;7.30;73.00;;;;;;9174925;19;20051;-62
2022/02/12 15:00:43;;;;;;;9.05;3.00;;;7.30;73.00;;;;;;9175910;19;20021;-64
2022/02/12 15:03:48;;;;;;;10.07;3.40;;;7.30;73.00;;;;;;9172567;19;20484;-62
2022/02/12 15:06:53;;;;;;;16.50;4.43;;;7.30;72.90;;;;;;9173744;19;20022;-63
2022/02/12 15:10:01;;;;;;;11.50;3.08;;;7.30;72.90;;;;;;9174741;19;20044;-65
2022/02/12 15:13:06;;;;;;;15.68;4.80;;;7.30;72.80;;;;;;9173984;19;20026;-62
2022/02/12 15:16:12;;;;;;;16.25;4.53;;;7.30;72.80;;;;;;9176032;19;20015;-62
2022/02/12 15:19:19;;;;;;;14.32;4.57;;;7.30;72.70;;;;;;9166929;19;20019;-63
2022/02/12 15:22:25;;;;;;;9.90;3.88;;;7.20;72.60;;;;;;9171701;19;20018;-62
2022/02/12 15:25:32;;;;;;;15.10;3.78;;;7.20;72.60;;;;;;9181027;19;20488;-65
2022/02/12 15:28:38;;;;;;;14.30;3.60;;;7.20;72.50;;;;;;9185004;19;20483;-62
2022/02/12 15:31:42;;;;;;;11.93;3.47;;;7.20;72.50;;;;;;9183136;19;20026;-62
2022/02/12 15:34:48;;;;;;;6.70;3.22;;;7.20;72.40;;;;;;9181179;19;20018;-63
2022/02/12 15:37:53;;;;;;;15.57;3.25;;;7.10;72.40;;;;;;9180729;19;20002;-62
2022/02/12 15:41:00;;;;;;;10.63;2.65;;;7.10;72.40;;;;;;9180480;19;20365;-62
2022/02/12 15:44:07;;;;;;;9.45;2.80;;;7.10;72.30;;;;;;9182585;19;20484;-63
2022/02/12 15:47:13;;;;;;;12.55;3.00;;;7.10;72.30;;;;;;9184019;19;20052;-63
2022/02/12 15:50:18;;;;;;;10.85;3.47;;;7.10;72.30;;;;;;9180811;19;20010;-63
2022/02/12 15:53:23;;;;;;;17.13;2.60;;;7.00;72.20;;;;;;9180440;19;20110;-62
2022/02/12 15:56:33;;;;;;;12.98;3.03;;;7.00;72.20;;;;;;9181544;19;20018;-63
2022/02/12 15:59:38;;;;;;;11.40;2.92;;;7.00;72.20;;;;;;9183676;19;20018;-63
2022/02/12 16:02:43;;;;;;;7.50;2.53;;;7.00;72.20;;;;;;9181150;19;20052;-61
2022/02/12 16:05:48;;;;;;;10.27;2.78;;;6.90;72.10;;;;;;9181431;19;20015;-63
2022/02/12 16:08:53;;;;;;;9.02;3.80;;;6.90;72.20;;;;;;9179788;19;20018;-62
2022/02/12 16:12:00;;;;;;;9.38;3.03;;;6.90;72.10;;;;;;9180653;19;20023;-63
2022/02/12 16:15:06;;;;;;;11.93;3.40;;;6.80;72.00;;;;;;9181720;19;20018;-64
2022/02/12 16:18:11;;;;;;;9.88;3.08;;;6.80;72.00;;;;;;9175337;19;20015;-62